createdAt,value
2018-09-14T00:02:07.308Z,4.17
2018-09-14T00:04:36.574Z,3.90
2018-09-14T00:07:14.034Z,4.27
2018-09-14T00:09:43.361Z,4.53
2018-09-14T00:12:13.691Z,2.83
2018-09-14T00:14:43.282Z,2.70
2018-09-14T00:17:19.710Z,5.03
2018-09-14T00:19:49.414Z,4.40
2018-09-14T00:22:18.924Z,3.50
2018-09-14T00:24:48.105Z,3.03
2018-09-14T00:27:24.544Z,4.80
2018-09-14T00:29:54.341Z,2.17
2018-09-14T00:32:23.606Z,2.20
2018-09-14T00:34:52.783Z,4.97
2018-09-14T00:37:26.167Z,1.93
2018-09-14T00:39:55.346Z,6.60
2018-09-14T00:42:28.365Z,4.77
2018-09-14T00:44:57.825Z,5.60
2018-09-14T00:47:30.654Z,2.80
2018-09-14T00:49:59.826Z,3.23
2018-09-14T00:52:33.286Z,2.77
2018-09-14T00:55:02.503Z,4.23
2018-09-14T00:57:35.667Z,2.87
2018-09-14T01:00:05.569Z,5.13
2018-09-14T01:02:38.708Z,5.50
2018-09-14T01:05:07.921Z,4.47
2018-09-14T01:07:41.106Z,4.73
2018-09-14T01:10:10.245Z,4.00
2018-09-14T01:12:43.906Z,4.17
2018-09-14T01:15:13.724Z,4.30
2018-09-14T01:17:46.750Z,3.40
2018-09-14T01:20:16.389Z,4.67
2018-09-14T01:22:49.466Z,4.87
2018-09-14T01:25:19.474Z,3.83
2018-09-14T01:27:52.214Z,6.93
2018-09-14T01:30:21.655Z,3.67
2018-09-14T01:32:58.561Z,5.43
2018-09-14T01:35:33.150Z,3.70
2018-09-14T01:38:02.394Z,5.03
2018-09-14T01:40:31.614Z,4.17
2018-09-14T01:43:01.362Z,6.40
2018-09-14T01:45:30.562Z,6.27
2018-09-14T01:48:04.752Z,2.70
2018-09-14T01:50:33.964Z,2.67
2018-09-14T01:53:06.981Z,2.90
2018-09-14T01:55:36.539Z,4.70
2018-09-14T01:58:13.249Z,4.47
2018-09-14T02:00:42.400Z,3.20
2018-09-14T02:03:13.684Z,2.77
2018-09-14T02:05:42.932Z,4.13
2018-09-14T02:08:20.111Z,6.67
2018-09-14T02:10:49.327Z,5.13
2018-09-14T02:13:20.177Z,2.37
2018-09-14T02:15:49.702Z,2.47
2018-09-14T02:18:22.545Z,6.67
2018-09-14T02:20:51.994Z,4.20
2018-09-14T02:23:24.419Z,5.23
2018-09-14T02:25:53.960Z,3.43
2018-09-14T02:28:26.402Z,4.83
2018-09-14T02:30:56.449Z,3.63
2018-09-14T02:33:29.241Z,4.33
2018-09-14T02:35:58.757Z,6.60
2018-09-14T02:38:32.085Z,3.13
2018-09-14T02:41:01.745Z,3.07
2018-09-14T02:43:34.910Z,2.80
2018-09-14T02:46:04.647Z,3.37
2018-09-14T02:48:41.510Z,1.60
2018-09-14T02:51:10.757Z,2.40
2018-09-14T02:53:40.065Z,3.53
2018-09-14T02:56:09.447Z,2.73
2018-09-14T02:58:42.345Z,6.20
2018-09-14T03:01:11.853Z,5.50
2018-09-14T03:03:48.184Z,4.80
2018-09-14T03:06:17.328Z,3.33
2018-09-14T03:08:49.981Z,3.83
2018-09-14T03:11:19.114Z,2.13
2018-09-14T03:13:52.300Z,4.70
2018-09-14T03:16:22.209Z,2.73
2018-09-14T03:18:54.842Z,3.30
2018-09-14T03:21:24.001Z,4.27
2018-09-14T03:24:00.834Z,5.63
2018-09-14T03:26:29.993Z,3.50
2018-09-14T03:29:00.035Z,2.93
2018-09-14T03:31:29.202Z,3.77
2018-09-14T03:34:05.553Z,3.60
2018-09-14T03:36:34.731Z,5.27
2018-09-14T03:39:08.133Z,1.77
2018-09-14T03:41:37.611Z,4.60
2018-09-14T03:44:08.801Z,3.10
2018-09-14T03:46:37.961Z,2.70
2018-09-14T03:49:14.537Z,1.90
2018-09-14T03:51:43.724Z,3.93
2018-09-14T03:54:17.051Z,6.07
2018-09-14T03:56:46.516Z,1.70
2018-09-14T03:59:19.109Z,4.23
2018-09-14T04:01:48.345Z,2.67
2018-09-14T04:04:21.724Z,3.23
2018-09-14T04:06:50.898Z,3.67
2018-09-14T04:09:23.985Z,4.20
2018-09-14T04:11:53.167Z,6.20
2018-09-14T04:14:26.161Z,5.17
2018-09-14T04:16:55.708Z,5.10
2018-09-14T04:19:28.749Z,3.47
2018-09-14T04:21:57.972Z,4.90
2018-09-14T04:24:30.887Z,5.53
2018-09-14T04:27:00.050Z,5.30
2018-09-14T04:29:33.232Z,4.10
2018-09-14T04:32:02.825Z,4.13
2018-09-14T04:34:36.788Z,5.13
2018-09-14T04:37:05.964Z,4.33
2018-09-14T04:39:38.467Z,3.63
2018-09-14T04:42:07.662Z,2.10
2018-09-14T04:44:44.225Z,5.80
2018-09-14T04:47:13.692Z,2.97
2018-09-14T04:49:44.549Z,4.23
2018-09-14T04:52:13.750Z,3.33
2018-09-14T04:54:47.758Z,5.40
2018-09-14T04:57:17.000Z,4.17
2018-09-14T04:59:58.369Z,6.03
2018-09-14T05:02:27.823Z,3.97
2018-09-14T05:04:57.096Z,5.33
2018-09-14T05:07:26.318Z,5.50
2018-09-14T05:09:56.066Z,5.53
2018-09-14T05:12:25.277Z,5.47
2018-09-14T05:15:02.299Z,7.60
2018-09-14T05:17:31.802Z,5.60
2018-09-14T05:20:01.635Z,6.40
2018-09-14T05:22:31.158Z,4.80
2018-09-14T05:25:04.993Z,5.67
2018-09-14T05:27:34.164Z,4.10
2018-09-14T05:30:10.769Z,4.93
2018-09-14T05:32:40.320Z,6.73
2018-09-14T05:35:13.775Z,7.27
2018-09-14T05:37:43.233Z,5.73
2018-09-14T05:40:14.224Z,12.60
2018-09-14T05:42:43.590Z,5.77
2018-09-14T05:45:16.369Z,7.37
2018-09-14T05:47:45.878Z,11.90
2018-09-14T05:50:19.072Z,11.73
2018-09-14T05:52:48.651Z,12.70
2018-09-14T05:55:22.173Z,8.07
2018-09-14T05:57:51.411Z,9.20
2018-09-14T06:00:24.174Z,7.93
2018-09-14T06:02:53.410Z,8.70
2018-09-14T06:05:26.811Z,10.40
2018-09-14T06:07:56.066Z,8.33
2018-09-14T06:10:29.198Z,9.80
2018-09-14T06:12:58.862Z,8.73
2018-09-14T06:15:31.722Z,5.80
2018-09-14T06:18:01.227Z,4.70
2018-09-14T06:20:36.247Z,9.50
2018-09-14T06:23:05.816Z,7.90
2018-09-14T06:25:47.394Z,7.83
2018-09-14T06:28:16.647Z,7.17
2018-09-14T06:30:46.215Z,7.57
2018-09-14T06:33:15.690Z,6.17
2018-09-14T06:35:45.004Z,7.10
2018-09-14T06:38:14.660Z,8.87
2018-09-14T06:40:45.951Z,7.60
2018-09-14T06:43:15.716Z,10.57
2018-09-14T06:48:08.579Z,8.97
2018-09-14T06:50:37.823Z,10.80
2018-09-14T06:53:07.311Z,8.77
2018-09-14T06:55:36.712Z,11.23
2018-09-14T06:58:05.950Z,12.50
2018-09-14T07:00:35.532Z,9.13
2018-09-14T07:03:04.752Z,9.00
2018-09-14T07:05:33.999Z,11.07
2018-09-14T07:08:04.405Z,10.83
2018-09-14T07:10:33.627Z,9.63
2018-09-14T07:13:04.163Z,10.70
2018-09-14T07:15:33.664Z,14.93
2018-09-14T07:18:06.429Z,10.77
2018-09-14T07:20:35.728Z,16.27
2018-09-14T07:23:10.547Z,14.77
2018-09-14T07:25:39.956Z,14.30
2018-09-14T07:28:21.516Z,13.13
2018-09-14T07:30:51.443Z,16.73
2018-09-14T07:33:21.027Z,14.20
2018-09-14T07:35:50.841Z,14.10
2018-09-14T07:38:20.554Z,17.30
2018-09-14T07:40:50.035Z,17.57
2018-09-14T07:43:22.704Z,16.57
2018-09-14T07:45:52.217Z,11.07
2018-09-14T07:48:25.300Z,12.33
2018-09-14T07:50:54.758Z,14.90
2018-09-14T07:53:26.310Z,13.77
2018-09-14T07:55:55.888Z,10.63
2018-09-14T07:58:29.022Z,12.77
2018-09-14T08:00:58.275Z,12.93
2018-09-14T08:03:36.942Z,12.43
2018-09-14T08:08:36.880Z,11.77
2018-09-14T08:11:06.446Z,9.93
2018-09-14T08:13:37.320Z,13.17
2018-09-14T08:16:06.662Z,13.17
2018-09-14T08:18:39.929Z,12.70
2018-09-14T08:21:09.706Z,9.23
2018-09-14T08:23:42.047Z,10.77
2018-09-14T08:26:11.614Z,9.20
2018-09-14T08:28:44.659Z,9.90
2018-09-14T08:31:13.931Z,7.53
2018-09-14T08:33:47.415Z,6.93
2018-09-14T08:36:16.722Z,10.27
2018-09-14T08:38:49.844Z,10.47
2018-09-14T08:41:19.048Z,7.17
2018-09-14T08:43:52.368Z,11.30
2018-09-14T08:46:21.934Z,10.17
2018-09-14T08:48:58.749Z,9.67
2018-09-14T08:51:28.015Z,6.60
2018-09-14T08:53:58.578Z,10.90
2018-09-14T08:59:05.399Z,16.27
2018-09-14T09:01:34.902Z,11.80
2018-09-14T09:04:04.489Z,8.10
2018-09-14T09:06:33.751Z,7.37
2018-09-14T09:09:12.204Z,9.93
2018-09-14T09:11:41.973Z,10.20
2018-09-14T09:14:12.646Z,8.30
2018-09-14T09:16:42.199Z,6.90
2018-09-14T09:19:15.543Z,7.97
2018-09-14T09:21:44.800Z,6.80
2018-09-14T09:24:16.912Z,8.20
2018-09-14T09:26:46.255Z,6.67
2018-09-14T09:29:24.283Z,7.30
2018-09-14T09:31:53.931Z,9.80
2018-09-14T09:34:23.362Z,10.80
2018-09-14T09:36:52.690Z,10.23
2018-09-14T09:39:26.071Z,7.77
2018-09-14T09:41:55.468Z,8.53
2018-09-14T09:44:27.342Z,5.97
2018-09-14T09:46:56.951Z,6.10
2018-09-14T09:49:29.525Z,8.43
2018-09-14T09:51:58.903Z,5.37
2018-09-14T09:54:32.693Z,9.03
2018-09-14T09:57:02.306Z,5.53
2018-09-14T09:59:35.271Z,7.70
2018-09-14T10:02:10.055Z,4.43
2018-09-14T10:06:46.486Z,7.33
2018-09-14T10:09:16.099Z,5.13
2018-09-14T10:11:45.486Z,5.93
2018-09-14T10:14:14.944Z,7.73
2018-09-14T10:16:44.559Z,7.67
2018-09-14T10:19:14.015Z,4.60
2018-09-14T10:21:56.931Z,4.17
2018-09-14T10:24:28.173Z,3.43
2018-09-14T10:26:58.061Z,4.43
2018-09-14T10:29:27.665Z,4.43
2018-09-14T10:31:57.591Z,3.60
2018-09-14T10:34:27.282Z,6.93
2018-09-14T10:36:56.895Z,5.97
2018-09-14T10:39:27.867Z,9.10
2018-09-14T10:41:57.499Z,6.30
2018-09-14T10:44:26.977Z,5.80
2018-09-14T10:47:03.787Z,6.27
2018-09-14T10:49:33.067Z,4.70
2018-09-14T10:52:03.017Z,7.70
2018-09-14T10:54:32.895Z,8.47
2018-09-14T10:57:09.756Z,8.07
2018-09-14T10:59:39.354Z,9.23
2018-09-14T11:02:09.675Z,5.50
2018-09-14T11:04:39.027Z,7.00
2018-09-14T11:07:13.854Z,8.03
2018-09-14T11:09:43.198Z,4.67
2018-09-14T11:12:16.124Z,5.90
2018-09-14T11:14:45.853Z,5.57
2018-09-14T11:17:18.291Z,6.47
2018-09-14T11:19:47.580Z,5.53
2018-09-14T11:22:20.098Z,4.97
2018-09-14T11:24:49.596Z,8.03
2018-09-14T11:27:23.202Z,7.43
2018-09-14T11:29:53.063Z,5.50
2018-09-14T11:32:25.906Z,7.23
2018-09-14T11:34:55.301Z,6.03
2018-09-14T11:37:27.896Z,5.60
2018-09-14T11:39:57.621Z,6.30
2018-09-14T11:42:31.611Z,5.23
2018-09-14T11:45:01.537Z,9.17
2018-09-14T11:47:34.182Z,10.57
2018-09-14T11:50:03.496Z,8.83
2018-09-14T11:52:37.787Z,6.10
2018-09-14T11:55:08.443Z,6.10
2018-09-14T11:57:39.512Z,6.10
2018-09-14T12:00:09.140Z,5.87
2018-09-14T12:02:40.988Z,4.93
2018-09-14T12:05:10.501Z,4.23
2018-09-14T12:07:43.063Z,5.70
2018-09-14T12:10:13.015Z,7.20
2018-09-14T12:12:50.240Z,4.23
2018-09-14T12:15:19.784Z,3.00
2018-09-14T12:17:49.138Z,5.13
2018-09-14T12:20:18.445Z,8.23
2018-09-14T12:22:55.556Z,5.00
2018-09-14T12:25:25.243Z,3.23
2018-09-14T12:27:55.141Z,3.33
2018-09-14T12:31:56.715Z,3.40
2018-09-14T12:34:26.154Z,3.33
2018-09-14T12:37:02.814Z,3.57
2018-09-14T12:39:32.114Z,5.00
2018-09-14T12:42:05.184Z,3.20
2018-09-14T12:44:35.426Z,3.50
2018-09-14T12:47:08.686Z,5.10
2018-09-14T12:49:38.424Z,4.23
2018-09-14T12:52:09.296Z,2.40
2018-09-14T12:54:39.221Z,5.93
2018-09-14T12:57:16.083Z,3.07
2018-09-14T12:59:45.626Z,3.73
2018-09-14T13:02:15.596Z,1.80
2018-09-14T13:04:45.109Z,2.50
2018-09-14T13:07:22.635Z,4.80
2018-09-14T13:09:51.950Z,4.27
2018-09-14T13:12:22.521Z,2.77
2018-09-14T13:14:52.109Z,3.03
2018-09-14T13:17:25.220Z,4.40
2018-09-14T13:19:54.979Z,3.87
2018-09-14T13:22:27.738Z,6.37
2018-09-14T13:24:57.157Z,3.03
2018-09-14T13:30:03.218Z,3.10
2018-09-14T13:32:32.500Z,5.47
2018-09-14T13:35:02.089Z,6.20
2018-09-14T13:37:34.963Z,3.43
2018-09-14T13:40:04.707Z,3.43
2018-09-14T13:42:37.593Z,5.00
2018-09-14T13:45:07.081Z,2.80
2018-09-14T13:47:40.498Z,2.43
2018-09-14T13:50:09.949Z,4.13
2018-09-14T13:52:46.485Z,3.20
2018-09-14T13:55:16.551Z,3.20
2018-09-14T13:57:45.920Z,3.63
2018-09-14T14:00:15.348Z,3.10
2018-09-14T14:02:50.055Z,3.57
2018-09-14T14:07:38.819Z,5.30
2018-09-14T14:10:08.498Z,4.17
2018-09-14T14:12:37.758Z,3.50
2018-09-14T14:15:07.093Z,2.90
2018-09-14T14:17:36.975Z,3.50
2018-09-14T14:20:06.042Z,3.67
2018-09-14T14:22:35.524Z,2.33
2018-09-14T14:25:05.113Z,3.17
2018-09-14T14:27:34.300Z,2.53
2018-09-14T14:30:04.587Z,3.00
2018-09-14T14:32:34.143Z,3.93
2018-09-14T14:35:10.879Z,2.63
2018-09-14T14:37:40.191Z,2.90
2018-09-14T14:40:13.476Z,3.53
2018-09-14T14:42:42.730Z,1.83
2018-09-14T14:45:13.899Z,3.00
2018-09-14T14:47:43.164Z,4.13
2018-09-14T14:50:19.231Z,2.53
2018-09-14T14:52:48.742Z,3.03
2018-09-14T14:55:18.740Z,2.70
2018-09-14T14:57:48.012Z,2.43
2018-09-14T15:02:38.738Z,3.00
2018-09-14T15:05:08.074Z,2.00
2018-09-14T15:07:38.604Z,2.60
2018-09-14T15:10:08.017Z,2.33
2018-09-14T15:12:37.293Z,3.73
2018-09-14T15:15:06.816Z,2.73
2018-09-14T15:17:36.097Z,2.30
2018-09-14T15:20:05.541Z,2.70
2018-09-14T15:22:35.098Z,2.97
2018-09-14T15:25:04.861Z,3.37
2018-09-14T15:27:35.953Z,3.80
2018-09-14T15:30:05.690Z,3.50
2018-09-14T15:32:38.385Z,2.17
2018-09-14T15:35:07.791Z,4.13
2018-09-14T15:37:41.106Z,2.40
2018-09-14T15:40:10.711Z,2.90
2018-09-14T15:42:43.568Z,2.50
2018-09-14T15:45:13.459Z,3.90
2018-09-14T15:47:46.414Z,5.40
2018-09-14T15:50:15.842Z,2.98
2018-09-14T15:52:49.140Z,2.87
2018-09-14T15:55:18.762Z,3.20
2018-09-14T15:57:52.014Z,3.67
2018-09-14T16:00:22.157Z,4.90
2018-09-14T16:02:59.095Z,2.70
2018-09-14T16:05:28.419Z,6.93
2018-09-14T16:07:57.721Z,3.03
2018-09-14T16:10:28.366Z,3.57
2018-09-14T16:13:01.180Z,3.03
2018-09-14T16:15:30.570Z,4.83
2018-09-14T16:18:03.265Z,3.13
2018-09-14T16:20:32.644Z,4.90
2018-09-14T16:23:06.070Z,3.23
2018-09-14T16:25:35.612Z,5.13
2018-09-14T16:28:12.400Z,2.73
2018-09-14T16:30:41.740Z,2.20
2018-09-14T16:33:14.943Z,2.97
2018-09-14T16:35:44.324Z,4.03
2018-09-14T16:38:15.722Z,6.87
2018-09-14T16:40:45.143Z,4.17
2018-09-14T16:43:25.124Z,5.20
2018-09-14T16:45:54.805Z,6.93
2018-09-14T16:48:24.655Z,2.30
2018-09-14T16:50:54.533Z,2.70
2018-09-14T16:53:24.302Z,3.63
2018-09-14T16:55:53.632Z,4.10
2018-09-14T16:58:27.083Z,5.63
2018-09-14T17:00:56.490Z,3.50
2018-09-14T17:03:28.008Z,5.00
2018-09-14T17:05:58.724Z,2.30
2018-09-14T17:11:06.922Z,2.63
2018-09-14T17:13:36.438Z,4.23
2018-09-14T17:16:05.885Z,7.07
2018-09-14T17:18:36.584Z,4.30
2018-09-14T17:21:06.067Z,6.67
2018-09-14T17:23:39.338Z,5.10
2018-09-14T17:26:09.207Z,6.40
2018-09-14T17:28:42.311Z,3.93
2018-09-14T17:31:11.599Z,8.07
2018-09-14T17:33:44.152Z,3.47
2018-09-14T17:36:14.244Z,4.20
2018-09-14T17:38:47.184Z,4.23
2018-09-14T17:41:17.052Z,4.93
2018-09-14T17:43:50.742Z,8.27
2018-09-14T17:46:20.790Z,5.37
2018-09-14T17:48:59.120Z,3.97
2018-09-14T17:51:28.411Z,4.93
2018-09-14T17:53:58.011Z,4.07
2018-09-14T17:56:27.720Z,4.73
2018-09-14T17:58:57.701Z,4.27
2018-09-14T18:01:27.182Z,3.47
2018-09-14T18:06:29.198Z,4.53
2018-09-14T18:09:08.865Z,4.47
2018-09-14T18:11:38.988Z,6.83
2018-09-14T18:14:08.643Z,7.17
2018-09-14T18:16:38.143Z,7.23
2018-09-14T18:19:12.007Z,7.70
2018-09-14T18:21:41.411Z,12.00
2018-09-14T18:24:14.706Z,7.13
2018-09-14T18:26:44.076Z,7.63
2018-09-14T18:29:17.261Z,6.37
2018-09-14T18:31:47.054Z,5.53
2018-09-14T18:34:19.531Z,6.73
2018-09-14T18:36:48.888Z,5.40
2018-09-14T18:39:26.347Z,6.47
2018-09-14T18:41:55.980Z,9.00
2018-09-14T18:44:25.553Z,5.47
2018-09-14T18:46:55.386Z,3.67
2018-09-14T18:49:28.707Z,4.43
2018-09-14T18:51:58.000Z,5.20
2018-09-14T18:54:30.412Z,11.63
2018-09-14T18:57:00.127Z,5.63
2018-09-14T18:59:33.255Z,3.87
2018-09-14T19:02:16.406Z,3.87
2018-09-14T19:04:46.151Z,6.20
2018-09-14T19:07:16.101Z,3.93
2018-09-14T19:09:45.769Z,4.23
2018-09-14T19:12:15.158Z,4.90
2018-09-14T19:14:44.834Z,8.17
2018-09-14T19:17:14.251Z,3.60
2018-09-14T19:19:45.133Z,7.70
2018-09-14T19:22:15.913Z,2.63
2018-09-14T19:24:48.624Z,6.90
2018-09-14T19:27:18.159Z,6.77
2018-09-14T19:29:52.190Z,3.43
2018-09-14T19:32:22.338Z,3.30
2018-09-14T19:34:55.724Z,5.63
2018-09-14T19:37:24.993Z,7.40
2018-09-14T19:39:56.909Z,8.37
2018-09-14T19:42:26.240Z,6.97
2018-09-14T19:45:03.291Z,9.50
2018-09-14T19:47:33.047Z,4.07
2018-09-14T19:50:02.507Z,6.40
2018-09-14T19:52:31.967Z,9.70
2018-09-14T19:55:05.520Z,3.50
2018-09-14T19:57:35.424Z,4.73
2018-09-14T20:00:09.071Z,6.97
2018-09-14T20:02:38.856Z,4.03
2018-09-14T20:05:16.334Z,4.47
2018-09-14T20:07:46.194Z,5.13
2018-09-14T20:10:15.858Z,4.73
2018-09-14T20:12:45.122Z,2.90
2018-09-14T20:15:17.327Z,2.57
2018-09-14T20:17:46.686Z,10.67
2018-09-14T20:20:21.165Z,4.07
2018-09-14T20:22:50.751Z,6.33
2018-09-14T20:25:23.488Z,3.43
2018-09-14T20:27:53.093Z,6.53
2018-09-14T20:30:24.052Z,4.67
2018-09-14T20:35:16.382Z,5.60
2018-09-14T20:37:45.625Z,5.67
2018-09-14T20:40:14.954Z,4.40
2018-09-14T20:42:46.204Z,2.80
2018-09-14T20:45:15.470Z,5.07
2018-09-14T20:47:44.812Z,7.87
2018-09-14T20:50:15.510Z,2.90
2018-09-14T20:52:45.616Z,4.50
2018-09-14T20:55:14.899Z,4.73
2018-09-14T20:57:44.458Z,9.03
2018-09-14T21:00:17.670Z,6.70
2018-09-14T21:02:47.862Z,4.43
2018-09-14T21:05:17.143Z,5.90
2018-09-14T21:07:46.839Z,2.40
2018-09-14T21:10:16.487Z,5.33
2018-09-14T21:12:46.064Z,2.80
2018-09-14T21:15:15.321Z,3.63
2018-09-14T21:17:52.262Z,5.77
2018-09-14T21:20:21.690Z,2.87
2018-09-14T21:22:51.593Z,2.43
2018-09-14T21:25:21.093Z,2.93
2018-09-14T21:27:54.251Z,4.20
2018-09-14T21:30:23.590Z,6.43
2018-09-14T21:33:03.053Z,4.07
2018-09-14T21:35:32.626Z,2.73
2018-09-14T21:38:01.948Z,3.70
2018-09-14T21:40:31.567Z,2.90
2018-09-14T21:43:04.123Z,3.77
2018-09-14T21:45:33.402Z,4.73
2018-09-14T21:48:06.539Z,4.23
2018-09-14T21:50:35.791Z,2.13
2018-09-14T21:53:12.767Z,3.67
2018-09-14T21:55:42.478Z,4.40
2018-09-14T21:58:13.116Z,3.07
2018-09-14T22:00:47.507Z,5.10
2018-09-14T22:03:16.809Z,5.13
2018-09-14T22:05:46.013Z,3.97
2018-09-14T22:08:18.500Z,1.60
2018-09-14T22:10:47.973Z,11.17
2018-09-14T22:13:20.957Z,4.67
2018-09-14T22:15:50.262Z,1.73
2018-09-14T22:18:23.462Z,2.17
2018-09-14T22:20:52.713Z,4.67
2018-09-14T22:23:25.287Z,4.23
2018-09-14T22:25:54.809Z,2.77
2018-09-14T22:28:27.563Z,3.27
2018-09-14T22:30:56.984Z,1.70
2018-09-14T22:33:29.865Z,3.10
2018-09-14T22:35:59.290Z,4.97
2018-09-14T22:38:33.349Z,5.50
2018-09-14T22:41:02.582Z,4.27
2018-09-14T22:43:35.502Z,5.80
2018-09-14T22:46:05.082Z,3.73
2018-09-14T22:48:37.750Z,6.27
2018-09-14T22:51:07.259Z,3.23
2018-09-14T22:53:40.302Z,1.90
2018-09-14T22:56:09.559Z,2.87
2018-09-14T22:58:43.102Z,3.70
2018-09-14T23:01:17.519Z,4.67
2018-09-14T23:03:47.569Z,4.97
2018-09-14T23:06:17.468Z,3.90
2018-09-14T23:08:47.944Z,3.10
2018-09-14T23:11:17.199Z,5.03
2018-09-14T23:13:53.911Z,2.17
2018-09-14T23:16:23.160Z,6.87
2018-09-14T23:18:53.949Z,3.30
2018-09-14T23:21:23.450Z,5.13
2018-09-14T23:24:00.306Z,3.93
2018-09-14T23:26:30.371Z,2.70
2018-09-14T23:28:59.955Z,3.93
2018-09-14T23:31:29.257Z,7.33
2018-09-14T23:34:06.023Z,1.90
2018-09-14T23:36:35.236Z,1.40
2018-09-14T23:39:08.781Z,4.40
2018-09-14T23:41:38.300Z,3.27
2018-09-14T23:44:08.899Z,3.17
2018-09-14T23:46:38.444Z,1.37
2018-09-14T23:49:15.278Z,1.83
2018-09-14T23:51:44.530Z,3.80
2018-09-14T23:54:14.928Z,3.83
2018-09-14T23:56:44.077Z,1.73
2018-09-14T23:59:17.326Z,5.23
